Kezdőlap
METAR-TAF:

METAR-TAF

Repülőterek :

Arad, Románia

földrajzi szélesség: 46-12N, földrajzi hosszúság: 021-24E, magasság: 117 m

Jelenlegi meteorológiai megfigyelések

A jelentés 33 perccel ezelõtt készült, 17:00 UTC
Észak-északkeleti szél 13 kt
Hőmérséklet -3°C
Páratartalom 54%
Légköri nyomás 1020 hPa
Látótávolság 10 km, vagy több
felhőtlen 1500 m magasságban, és nincs gomolyfelhõ

METAR: LRAR 251700Z 02013KT CAVOK M03/M11 Q1020

Idő: 19:33 (17:33 UTC)

Előrejelzés

A jelentés 3 órával és 33 perccel ezelõtt készült, 14:00 UTC
Az előrejelzés 25-én 15 óra UTC és 25-én 24 óra UTC között érvényes
Észak-északkeleti szél 14 kt
Látótávolság 10 km, vagy több
felhőtlen 1500 m magasságban, és nincs gomolyfelhõ

TAF: LRAR 251400Z 2515/2524 02014KT CAVOK

Meteorológiai megfigyelések és előrejelzések több, mint 4000 repülőtéren (METAR és TAF jelentéseket).

A térképen piros és sárga pontok jelzik az elérhető meteorológiai állomásokat.

Mozgassa az egeret a pont fölött, hogy megjelenjen az állomás neve.

Azután kattintson az időjárási megfigyelések és előrejelzések megtekintéséhez.

A térkép megváltoztatása: kattintson a fekete keresztel jelölt zöld gombra ráközelítéshez, a vonallal jelölt zöld gombra távolításhoz, vagy a zöld nyilakra a szomszédos térképek eléréséhez.


METAR-TAF: